Time;durP1;ratioP1;P1;durP2;ratioP2;P2;SDS_P1;SDS_P2;PMS_P1;PMS_P2;Temp;Humidity;BMP_temperature;BMP_pressure;BME280_temperature;BME280_humidity;BME280_pressure;Samples;Min_cycle;Max_cycle;Signal;HPM_P1;HPM_P2
2022/01/23 00:00:19;;;;;;;;;57.75;44.75;;;;;6.12;74.40;103399.66;5017599;28;45504;-66
2022/01/23 00:02:46;;;;;;;;;56.00;42.00;;;;;6.22;74.26;103394.78;5019482;28;45399;-66
2022/01/23 00:05:12;;;;;;;;;54.75;39.50;;;;;6.30;74.05;103408.00;5031225;28;47052;-66
2022/01/23 00:07:39;;;;;;;;;51.25;41.25;;;;;6.40;73.53;103414.84;5020392;28;45738;-68
2022/01/23 00:10:06;;;;;;;;;55.75;41.25;;;;;6.31;74.06;103409.75;5015847;28;45281;-66
2022/01/23 00:12:37;;;;;;;;;54.75;41.00;;;;;6.33;74.03;103402.50;5020553;28;45583;-66
2022/01/23 00:17:46;;;;;;;;;51.25;41.75;;;;;6.17;74.31;103403.06;5022622;28;45548;-67
2022/01/23 00:20:12;;;;;;;;;59.75;44.00;;;;;6.31;74.01;103407.94;5015980;28;45377;-66
2022/01/23 00:22:45;;;;;;;;;49.75;40.25;;;;;6.34;73.82;103398.88;5024776;28;45324;-67
2022/01/23 00:30:41;;;;;;;;;56.00;43.50;;;;;6.12;74.08;103396.94;5021934;28;45458;-66
2022/01/23 00:33:08;;;;;;;;;51.25;44.25;;;;;6.13;73.78;103395.13;5022850;28;45924;-66
2022/01/23 00:35:35;;;;;;;;;54.75;44.25;;;;;6.19;74.05;103394.91;5022575;28;46433;-66
2022/01/23 00:38:03;;;;;;;;;58.75;40.00;;;;;6.31;73.26;103393.56;5022409;28;45361;-66
2022/01/23 00:40:30;;;;;;;;;51.00;38.00;;;;;6.28;73.77;103383.78;5015981;28;45371;-66
2022/01/23 00:42:58;;;;;;;;;49.25;39.75;;;;;6.22;73.52;103387.56;5023080;28;45731;-66
2022/01/23 00:45:32;;;;;;;;;48.75;38.25;;;;;6.12;73.96;103375.34;5012483;28;45557;-66
2022/01/23 00:48:04;;;;;;;;;55.00;41.50;;;;;6.23;74.07;103381.22;5022484;28;45494;-66
2022/01/23 00:50:41;;;;;;;;;38.50;33.00;;;;;6.22;73.54;103382.16;5019965;28;45398;-66
2022/01/23 00:53:10;;;;;;;;;48.00;38.50;;;;;6.27;73.30;103381.13;5021889;28;45455;-66
2022/01/23 00:55:37;;;;;;;;;62.00;43.00;;;;;6.33;73.79;103386.31;5018816;28;45570;-66
2022/01/23 00:58:03;;;;;;;;;54.50;41.00;;;;;6.28;73.25;103372.97;5020849;28;45442;-66
2022/01/23 01:00:28;;;;;;;;;53.25;39.25;;;;;6.32;72.89;103366.50;5019864;28;45288;-66
2022/01/23 01:02:54;;;;;;;;;46.75;40.00;;;;;6.36;72.97;103370.84;5022453;28;45435;-65
2022/01/23 01:05:19;;;;;;;;;47.50;36.50;;;;;6.40;73.18;103372.50;5019441;28;46753;-64
2022/01/23 01:07:45;;;;;;;;;37.50;31.75;;;;;6.48;72.72;103372.22;5023173;28;45400;-65
2022/01/23 01:10:19;;;;;;;;;55.50;37.25;;;;;6.48;72.05;103361.41;5019774;28;45363;-65
2022/01/23 01:12:47;;;;;;;;;45.75;38.50;;;;;6.30;72.75;103371.09;5023754;28;45385;-64
2022/01/23 01:31:40;;;;;;;;;38.75;34.50;;;;;6.07;74.32;103371.03;5022306;28;45360;-65
2022/01/23 01:34:43;;;;;;;;;41.50;35.50;;;;;6.19;73.52;103368.78;5021765;28;45458;-65
2022/01/23 01:36:57;;;;;;;;;28.25;28.25;;;;;6.25;73.14;103371.25;5023839;28;46612;-64
2022/01/23 01:39:26;;;;;;;;;38.25;34.00;;;;;6.32;72.54;103369.22;5015689;28;45453;-65
2022/01/23 01:41:52;;;;;;;;;37.25;29.75;;;;;6.29;72.53;103377.41;5021158;28;45415;-65
2022/01/23 01:44:20;;;;;;;;;37.25;31.25;;;;;6.21;72.35;103372.28;5031934;28;45575;-66
2022/01/23 01:46:45;;;;;;;;;47.00;36.75;;;;;5.97;73.46;103366.94;5021695;28;46432;-65
2022/01/23 01:49:11;;;;;;;;;37.75;35.75;;;;;6.02;73.04;103363.13;5017730;28;45316;-65
2022/01/23 01:51:38;;;;;;;;;43.25;33.75;;;;;5.99;72.96;103371.31;5023614;28;45394;-65
2022/01/23 01:54:11;;;;;;;;;45.50;36.75;;;;;5.89;73.16;103367.19;5017342;28;45402;-66
2022/01/23 01:57:19;;;;;;;;;35.75;28.75;;;;;5.88;73.11;103365.44;5038493;28;46816;-66
2022/01/23 01:59:48;;;;;;;;;36.00;31.00;;;;;6.02;73.08;103362.25;5018908;28;45717;-65
2022/01/23 02:02:48;;;;;;;;;37.00;30.50;;;;;6.17;72.87;103361.69;5023641;28;45261;-65
2022/01/23 02:10:58;;;;;;;;;35.25;30.50;;;;;6.22;71.88;103365.97;5028121;28;45633;-66
2022/01/23 02:13:38;;;;;;;;;33.75;26.25;;;;;6.23;71.86;103362.34;5023287;28;45799;-66
2022/01/23 02:16:40;;;;;;;;;26.75;23.75;;;;;6.17;71.99;103359.88;5022826;28;45412;-65
2022/01/23 02:25:15;;;;;;;;;43.75;31.75;;;;;6.20;71.88;103358.88;5018338;28;45363;-65
2022/01/23 02:57:09;;;;;;;;;33.25;28.75;;;;;6.22;71.80;103314.69;5022530;28;45313;-65
2022/01/23 02:59:37;;;;;;;;;28.25;23.50;;;;;6.16;71.69;103308.63;5031703;28;45614;-65
2022/01/23 03:02:12;;;;;;;;;42.25;36.00;;;;;6.15;71.98;103320.34;5021809;28;46394;-65
2022/01/23 03:04:41;;;;;;;;;38.50;29.75;;;;;6.15;72.02;103315.84;5015525;28;45430;-65
2022/01/23 03:14:59;;;;;;;;;49.00;33.75;;;;;6.11;72.10;103314.22;5017042;28;45742;-65
2022/01/23 03:26:08;;;;;;;;;37.75;29.50;;;;;6.09;72.28;103304.41;5017155;28;45152;-65
2022/01/23 03:33:30;;;;;;;;;35.25;29.00;;;;;6.11;72.11;103286.34;5018998;28;45399;-65
2022/01/23 03:35:55;;;;;;;;;37.75;32.00;;;;;6.09;72.61;103288.22;5021081;28;45451;-65
2022/01/23 03:38:21;;;;;;;;;33.25;29.50;;;;;6.04;72.48;103293.78;5019998;28;45398;-65
2022/01/23 03:40:46;;;;;;;;;36.75;31.50;;;;;6.06;72.38;103299.13;5014059;28;45413;-64
2022/01/23 03:43:14;;;;;;;;;33.67;29.33;;;;;6.00;72.60;103286.72;5019782;28;45488;-67
2022/01/23 03:45:59;;;;;;;;;42.50;35.50;;;;;6.04;72.53;103292.91;5014659;28;45367;-65
2022/01/23 03:50:52;;;;;;;;;39.75;32.25;;;;;6.08;72.78;103286.44;5019956;28;45245;-65
2022/01/23 03:53:18;;;;;;;;;33.75;30.00;;;;;6.05;72.59;103300.94;5020473;28;45826;-65
2022/01/23 03:55:44;;;;;;;;;39.00;31.00;;;;;6.04;72.81;103288.41;5020543;28;45443;-65
2022/01/23 03:58:09;;;;;;;;;37.25;28.75;;;;;6.02;72.71;103279.47;5023255;28;45470;-65
2022/01/23 04:00:35;;;;;;;;;37.33;32.00;;;;;6.10;72.70;103289.97;5021284;28;45398;-65
2022/01/23 04:03:00;;;;;;;;;38.33;31.33;;;;;6.17;72.41;103289.69;5022837;28;46565;-65
2022/01/23 04:05:26;;;;;;;;;28.00;24.00;;;;;6.19;72.22;103277.00;5020569;28;45516;-66
2022/01/23 04:07:51;;;;;;;;;30.75;27.75;;;;;6.14;72.40;103275.41;5023808;28;45984;-65
2022/01/23 04:10:19;;;;;;;;;26.00;24.50;;;;;6.13;72.26;103273.69;5020595;28;45395;-65
2022/01/23 04:13:09;;;;;;;;;38.67;31.00;;;;;6.18;72.34;103286.06;5039769;28;47507;-65
2022/01/23 04:19:05;;;;;;;;;35.67;27.33;;;;;6.13;72.17;103265.56;5022740;28;45366;-65
2022/01/23 04:31:41;;;;;;;;;37.33;31.67;;;;;6.17;72.00;103278.00;5021873;28;45466;-65
2022/01/23 04:32:37;;;;;;;;;31.00;24.67;;;;;6.10;71.71;103288.16;5024374;28;45468;-65
2022/01/23 04:45:43;;;;;;;;;31.33;25.67;;;;;6.02;72.03;103276.75;5013581;28;45392;-65
2022/01/23 05:04:31;;;;;;;;;49.50;34.25;;;;;5.45;73.86;103298.59;5016742;28;45509;-65
2022/01/23 05:07:02;;;;;;;;;33.25;28.50;;;;;5.63;72.94;103294.34;5021938;28;47238;-65
2022/01/23 05:09:29;;;;;;;;;39.50;32.75;;;;;5.69;73.00;103286.97;5017270;28;45337;-65
2022/01/23 05:12:00;;;;;;;;;34.00;30.00;;;;;5.75;73.21;103296.63;5024335;28;45423;-65
2022/01/23 05:14:33;;;;;;;;;34.67;30.00;;;;;5.82;73.16;103287.38;5017963;28;45607;-65
2022/01/23 05:17:00;;;;;;;;;38.75;29.75;;;;;5.88;72.71;103292.59;5019480;28;45277;-65
2022/01/23 05:19:26;;;;;;;;;37.00;29.67;;;;;5.94;72.71;103289.66;5020472;28;45479;-65
2022/01/23 05:25:12;;;;;;;;;50.25;34.00;;;;;5.95;72.59;103294.13;5033936;28;45490;-66
2022/01/23 05:27:37;;;;;;;;;40.67;27.33;;;;;5.95;72.27;103298.63;5021544;28;48216;-65
2022/01/23 05:30:04;;;;;;;;;40.67;32.33;;;;;5.88;72.37;103302.50;5025408;28;45292;-66
2022/01/23 05:32:40;;;;;;;;;34.67;27.33;;;;;5.71;72.21;103287.75;5024115;28;45584;-66
2022/01/23 05:35:08;;;;;;;;;31.75;29.00;;;;;5.68;72.93;103301.38;5013393;28;45513;-65
2022/01/23 05:37:34;;;;;;;;;36.33;28.33;;;;;5.76;73.24;103298.41;5022904;28;45442;-65
2022/01/23 05:40:00;;;;;;;;;40.33;31.33;;;;;5.82;72.69;103298.19;5019481;28;45496;-66
2022/01/23 05:42:25;;;;;;;;;30.67;20.67;;;;;5.69;72.61;103297.75;5023903;28;46507;-67
2022/01/23 05:44:51;;;;;;;;;42.25;32.25;;;;;5.69;72.34;103292.34;5018895;28;45441;-67
2022/01/23 05:47:16;;;;;;;;;33.67;27.33;;;;;5.69;72.82;103297.75;5050538;28;47281;-66
2022/01/23 05:49:42;;;;;;;;;34.33;28.67;;;;;5.73;72.81;103288.59;5018943;28;45405;-66
2022/01/23 05:52:08;;;;;;;;;37.00;31.67;;;;;5.74;72.52;103294.88;5020736;28;45461;-67
2022/01/23 05:54:34;;;;;;;;;32.00;28.33;;;;;5.71;72.88;103290.47;5022837;28;45521;-65
2022/01/23 05:57:00;;;;;;;;;39.00;28.25;;;;;5.80;72.69;103300.03;5022357;28;47146;-66
2022/01/23 05:59:25;;;;;;;;;29.33;25.00;;;;;5.89;72.60;103299.75;5020991;28;45834;-67
2022/01/23 06:01:52;;;;;;;;;31.33;26.67;;;;;5.88;72.28;103302.50;5022753;28;45323;-67
2022/01/23 06:04:19;;;;;;;;;37.00;26.00;;;;;5.89;72.02;103309.66;5019109;28;46222;-67
2022/01/23 06:06:45;;;;;;;;;27.33;25.00;;;;;5.77;72.21;103294.78;5022404;28;45483;-67
2022/01/23 06:09:10;;;;;;;;;31.00;28.67;;;;;5.84;72.38;103302.56;5020136;28;45339;-67
2022/01/23 06:11:36;;;;;;;;;27.33;27.33;;;;;5.86;72.12;103310.59;5022592;28;45340;-66
2022/01/23 06:14:02;;;;;;;;;26.00;21.00;;;;;5.85;71.86;103308.84;5019212;28;45360;-65
2022/01/23 06:16:27;;;;;;;;;37.00;26.33;;;;;5.83;71.89;103310.72;5022793;28;46351;-65
2022/01/23 06:18:53;;;;;;;;;33.33;24.33;;;;;5.84;71.49;103305.25;5018265;28;45276;-65
2022/01/23 06:21:20;;;;;;;;;31.33;23.33;;;;;5.79;72.09;103307.25;5020684;28;45288;-65
2022/01/23 06:23:48;;;;;;;;;28.67;21.00;;;;;5.80;71.97;103303.63;5035719;28;45390;-65
2022/01/23 06:26:16;;;;;;;;;30.33;22.67;;;;;5.78;71.66;103304.59;5034714;28;47117;-65
2022/01/23 06:28:58;;;;;;;;;23.33;19.33;;;;;5.78;70.94;103305.50;5014701;28;45404;-67
2022/01/23 06:31:23;;;;;;;;;26.67;20.33;;;;;5.79;71.31;103304.56;5020512;28;45704;-66
2022/01/23 06:33:49;;;;;;;;;33.00;23.00;;;;;5.73;70.83;103296.69;5019080;28;45428;-66
2022/01/23 06:36:14;;;;;;;;;20.33;19.33;;;;;5.76;71.00;103309.19;5011958;28;46084;-65
2022/01/23 06:38:40;;;;;;;;;26.00;20.00;;;;;5.67;71.58;103304.13;5019467;28;45490;-65
2022/01/23 06:41:06;;;;;;;;;23.00;23.00;;;;;5.65;71.33;103300.59;5014340;28;45904;-65
2022/01/23 06:43:31;;;;;;;;;20.33;17.67;;;;;5.67;71.64;103309.53;5019555;28;45306;-65
2022/01/23 06:45:56;;;;;;;;;26.00;21.33;;;;;5.52;71.81;103302.84;5020119;28;45907;-65
2022/01/23 06:48:22;;;;;;;;;25.00;16.33;;;;;5.51;72.51;103292.09;5020237;28;45537;-66
2022/01/23 06:50:47;;;;;;;;;27.33;20.67;;;;;5.59;72.34;103303.50;5018155;28;45476;-66
2022/01/23 06:53:13;;;;;;;;;22.67;20.33;;;;;5.61;72.52;103293.56;5021809;28;45364;-65
2022/01/23 06:55:38;;;;;;;;;20.00;16.33;;;;;5.62;72.32;103307.00;5018413;28;45470;-66
2022/01/23 06:58:03;;;;;;;;;22.33;19.67;;;;;5.58;72.30;103315.22;5021301;28;45423;-66
2022/01/23 07:00:29;;;;;;;;;22.67;20.33;;;;;5.63;72.25;103314.13;5019003;28;45485;-66
2022/01/23 07:02:54;;;;;;;;;29.33;20.33;;;;;5.64;72.40;103315.88;5022113;28;45496;-65
2022/01/23 07:05:19;;;;;;;;;19.33;17.33;;;;;5.63;72.82;103313.25;5018436;28;46513;-66
2022/01/23 07:07:45;;;;;;;;;23.00;18.67;;;;;5.63;72.58;103313.25;5018515;28;45398;-65
2022/01/23 07:10:10;;;;;;;;;24.67;17.00;;;;;5.70;72.59;103314.78;5017408;28;45521;-66
2022/01/23 07:12:35;;;;;;;;;27.00;15.67;;;;;5.68;72.60;103320.25;5023828;28;45379;-65
2022/01/23 07:15:01;;;;;;;;;24.00;17.33;;;;;5.69;72.64;103310.34;5019794;28;45308;-66
2022/01/23 07:17:26;;;;;;;;;19.67;14.67;;;;;5.69;72.10;103322.03;5022900;28;45379;-65
2022/01/23 07:19:51;;;;;;;;;17.00;15.00;;;;;5.65;71.85;103323.06;5017109;28;45341;-65
2022/01/23 07:22:17;;;;;;;;;20.67;16.33;;;;;5.63;71.61;103324.03;5019826;28;45539;-65
2022/01/23 07:24:42;;;;;;;;;17.00;16.67;;;;;5.56;71.85;103314.38;5018995;28;46420;-65
2022/01/23 07:27:15;;;;;;;;;17.00;14.67;;;;;5.47;72.02;103321.91;5015476;28;45339;-65
2022/01/23 07:29:43;;;;;;;;;23.33;18.67;;;;;5.48;72.02;103323.63;5019197;28;45411;-65
2022/01/23 07:32:09;;;;;;;;;22.67;16.00;;;;;5.49;72.79;103322.69;5022188;28;45220;-65
2022/01/23 07:34:35;;;;;;;;;20.00;15.00;;;;;5.49;72.53;103316.44;5012614;28;46127;-66
2022/01/23 07:37:00;;;;;;;;;14.00;14.00;;;;;5.46;72.52;103305.75;5020628;28;45386;-66
2022/01/23 07:39:26;;;;;;;;;19.33;17.33;;;;;5.34;72.46;103316.94;5015493;28;45391;-66
2022/01/23 07:41:51;;;;;;;;;25.67;20.67;;;;;5.37;72.75;103317.75;5016290;28;45298;-65
2022/01/23 07:44:17;;;;;;;;;24.00;14.67;;;;;5.43;71.93;103311.25;5009355;28;45782;-66
2022/01/23 07:46:42;;;;;;;;;21.00;18.67;;;;;5.51;72.05;103302.91;5015729;28;45359;-65
2022/01/23 07:49:09;;;;;;;;;20.33;20.33;;;;;5.48;71.70;103310.16;5008984;28;45631;-65
2022/01/23 07:51:34;;;;;;;;;17.33;15.33;;;;;5.47;72.14;103313.81;5023088;28;45293;-65
2022/01/23 07:54:00;;;;;;;;;16.33;14.00;;;;;5.52;72.17;103310.06;5016146;28;45651;-66
2022/01/23 07:56:26;;;;;;;;;23.33;17.33;;;;;5.53;72.44;103307.31;5022615;28;45406;-66
2022/01/23 07:58:52;;;;;;;;;19.00;14.33;;;;;5.58;72.18;103326.00;5015301;28;45383;-65
2022/01/23 08:01:17;;;;;;;;;18.00;11.33;;;;;5.56;72.40;103325.19;5023056;28;45425;-65
2022/01/23 08:03:42;;;;;;;;;19.00;16.00;;;;;5.58;72.16;103336.81;5031749;28;47432;-66
2022/01/23 08:06:11;;;;;;;;;17.67;16.33;;;;;5.59;72.09;103333.19;5017028;28;45275;-66
2022/01/23 08:08:36;;;;;;;;;19.67;16.00;;;;;5.51;71.93;103338.84;5007434;28;45504;-66
2022/01/23 08:11:02;;;;;;;;;30.33;18.33;;;;;5.51;72.21;103346.91;5021368;28;45235;-66
2022/01/23 08:13:27;;;;;;;;;26.33;21.00;;;;;5.35;72.45;103341.16;5018920;28;46566;-66
2022/01/23 08:15:52;;;;;;;;;31.33;22.00;;;;;5.46;72.44;103355.19;5014994;28;45462;-66
2022/01/23 08:18:18;;;;;;;;;19.67;18.67;;;;;5.55;72.30;103358.50;5019674;28;45774;-66
2022/01/23 08:20:43;;;;;;;;;27.67;18.00;;;;;5.51;72.33;103351.44;5016494;28;45304;-66
2022/01/23 08:23:09;;;;;;;;;23.00;18.67;;;;;5.51;72.29;103356.81;5020120;28;46300;-66
2022/01/23 08:25:34;;;;;;;;;24.00;21.67;;;;;5.58;72.48;103355.69;5013791;28;45699;-66
2022/01/23 08:28:01;;;;;;;;;31.67;24.00;;;;;5.65;72.53;103358.13;5043071;28;46146;-66
2022/01/23 08:30:27;;;;;;;;;30.00;23.00;;;;;5.63;71.94;103351.88;5021953;28;45672;-66
2022/01/23 08:32:52;;;;;;;;;24.33;18.67;;;;;5.62;71.94;103354.66;5020886;28;45661;-66
2022/01/23 08:35:20;;;;;;;;;34.67;23.67;;;;;5.64;71.65;103363.56;5012321;28;45352;-66
2022/01/23 08:37:45;;;;;;;;;28.00;23.67;;;;;5.55;71.56;103359.38;5023054;28;45366;-66
2022/01/23 08:40:33;;;;;;;;;24.00;22.33;;;;;5.53;71.48;103358.53;5016753;28;45334;-66
2022/01/23 08:42:59;;;;;;;;;27.67;21.00;;;;;5.59;71.59;103360.13;5023809;28;47413;-66
2022/01/23 08:45:24;;;;;;;;;25.67;21.67;;;;;5.62;71.50;103351.97;5020522;28;45319;-66
2022/01/23 08:47:50;;;;;;;;;25.67;23.33;;;;;5.62;71.55;103354.66;5024403;28;45334;-65
2022/01/23 08:50:15;;;;;;;;;29.33;26.00;;;;;5.65;71.74;103355.41;5018287;28;45531;-65
2022/01/23 08:52:41;;;;;;;;;33.67;23.00;;;;;5.63;71.46;103353.69;5025491;28;45323;-65
2022/01/23 08:55:06;;;;;;;;;26.67;22.00;;;;;5.58;71.29;103351.16;5018623;28;45362;-65
2022/01/23 08:57:32;;;;;;;;;27.67;24.33;;;;;5.56;71.88;103357.53;5025489;28;45411;-65
2022/01/23 08:59:57;;;;;;;;;31.00;25.67;;;;;5.63;71.52;103345.59;5019174;28;45320;-65
2022/01/23 09:02:22;;;;;;;;;34.33;23.33;;;;;5.65;71.11;103355.41;5040545;28;48618;-65
2022/01/23 09:04:48;;;;;;;;;31.67;26.33;;;;;5.69;71.18;103359.78;5018203;28;45424;-66
2022/01/23 09:07:13;;;;;;;;;32.67;27.00;;;;;5.65;71.46;103359.91;5044308;28;45284;-65
2022/01/23 09:09:40;;;;;;;;;37.00;28.00;;;;;5.59;71.07;103360.13;5018425;28;45446;-65
2022/01/23 09:12:20;;;;;;;;;30.67;28.00;;;;;5.65;71.49;103370.72;5025169;28;45496;-65
2022/01/23 09:14:46;;;;;;;;;25.00;25.00;;;;;5.62;71.43;103365.44;5021612;28;45475;-65
2022/01/23 09:17:11;;;;;;;;;33.50;24.50;;;;;5.56;71.03;103360.22;5017114;28;45411;-65
2022/01/23 09:19:39;;;;;;;;;28.67;23.00;;;;;5.49;71.39;103352.34;5034926;28;45467;-66
2022/01/23 09:22:04;;;;;;;;;26.67;20.00;;;;;5.61;71.55;103361.88;5017679;28;47251;-65
2022/01/23 09:24:30;;;;;;;;;33.00;25.33;;;;;5.73;71.27;103368.63;5020837;28;45343;-65
2022/01/23 09:27:02;;;;;;;;;36.33;27.00;;;;;5.72;71.36;103356.06;5023190;28;45301;-65
2022/01/23 09:29:38;;;;;;;;;35.00;30.00;;;;;5.71;71.05;103362.41;5022896;28;45386;-65
2022/01/23 09:32:08;;;;;;;;;39.33;25.67;;;;;5.73;71.23;103357.84;5023924;28;45631;-65
2022/01/23 09:34:34;;;;;;;;;27.33;23.33;;;;;5.69;70.98;103362.47;5016047;28;45408;-65
2022/01/23 09:37:02;;;;;;;;;30.00;25.67;;;;;5.72;71.17;103369.56;5022286;28;45612;-65
2022/01/23 09:39:30;;;;;;;;;24.33;20.67;;;;;5.70;71.12;103375.00;5017612;28;45398;-66
2022/01/23 09:42:00;;;;;;;;;27.67;22.67;;;;;5.73;70.96;103374.03;5021156;28;47216;-65
2022/01/23 09:44:30;;;;;;;;;28.25;24.25;;;;;5.63;70.99;103368.06;5019754;28;45319;-65
2022/01/23 09:46:56;;;;;;;;;30.67;26.00;;;;;5.58;71.23;103374.56;5039651;28;45395;-65
2022/01/23 09:49:24;;;;;;;;;25.00;20.33;;;;;5.68;71.52;103360.72;5014992;28;45324;-65
2022/01/23 09:51:51;;;;;;;;;29.00;26.67;;;;;5.71;71.01;103357.00;5023683;28;46270;-65
2022/01/23 09:54:16;;;;;;;;;30.00;26.25;;;;;5.66;70.86;103359.00;5017830;28;45402;-66
2022/01/23 09:56:43;;;;;;;;;27.67;25.33;;;;;5.59;71.23;103361.03;5024138;28;45367;-65
2022/01/23 09:59:11;;;;;;;;;21.33;19.00;;;;;5.66;71.21;103365.28;5018380;28;45439;-66
2022/01/23 10:01:38;;;;;;;;;25.00;20.33;;;;;5.68;70.99;103376.91;5031771;28;47497;-65
2022/01/23 10:04:04;;;;;;;;;25.67;19.67;;;;;5.58;70.55;103364.66;5017532;28;45402;-65
2022/01/23 10:06:29;;;;;;;;;22.67;22.00;;;;;5.53;71.11;103368.44;5023981;28;45449;-65
2022/01/23 10:08:55;;;;;;;;;27.67;21.00;;;;;5.53;71.29;103366.63;5019943;28;45512;-65
2022/01/23 10:11:21;;;;;;;;;29.33;21.00;;;;;5.66;71.15;103367.09;5024004;28;45397;-66
2022/01/23 10:13:48;;;;;;;;;28.00;23.00;;;;;5.68;71.00;103376.00;5018223;28;45327;-65
2022/01/23 10:16:14;;;;;;;;;22.67;19.00;;;;;5.71;71.08;103365.97;5020040;28;45336;-65
2022/01/23 10:18:40;;;;;;;;;27.33;25.00;;;;;5.73;70.71;103374.91;5019391;28;45572;-65
2022/01/23 10:21:05;;;;;;;;;26.67;22.67;;;;;5.74;71.03;103373.09;5019330;28;48171;-65
2022/01/23 10:23:31;;;;;;;;;23.33;21.00;;;;;5.73;70.66;103376.72;5020164;28;45529;-65
2022/01/23 10:25:57;;;;;;;;;23.67;20.00;;;;;5.75;70.68;103370.34;5021036;28;45347;-65
2022/01/23 10:28:28;;;;;;;;;20.67;16.67;;;;;5.69;71.16;103377.78;5021750;28;45260;-65
2022/01/23 10:30:57;;;;;;;;;25.67;17.00;;;;;5.70;70.90;103366.03;5023398;28;45586;-65
2022/01/23 10:33:33;;;;;;;;;25.00;24.67;;;;;5.73;71.49;103371.34;5021141;28;45337;-65
2022/01/23 10:36:06;;;;;;;;;28.33;20.67;;;;;5.76;71.12;103371.25;5014933;28;45354;-65
2022/01/23 10:38:49;;;;;;;;;27.00;19.00;;;;;5.80;70.76;103370.19;5018843;28;45553;-66
2022/01/23 10:49:52;;;;;;;;;23.00;20.33;;;;;5.75;70.50;103362.25;5016981;28;45366;-65
2022/01/23 10:52:34;;;;;;;;;27.33;20.33;;;;;5.74;70.84;103360.50;5023263;28;46453;-65
2022/01/23 10:55:21;;;;;;;;;25.00;21.00;;;;;5.73;71.12;103356.03;5014541;28;45611;-65
2022/01/23 10:57:50;;;;;;;;;28.67;22.33;;;;;5.84;70.85;103358.38;5014644;28;45529;-65
2022/01/23 11:00:27;;;;;;;;;25.00;19.67;;;;;5.84;70.61;103352.97;5017602;28;45409;-65
2022/01/23 11:02:55;;;;;;;;;26.33;20.67;;;;;5.86;70.70;103353.78;5017332;28;48313;-65
2022/01/23 11:05:29;;;;;;;;;23.67;19.67;;;;;5.84;70.97;103347.56;5017344;28;45511;-65
2022/01/23 11:07:55;;;;;;;;;27.33;25.33;;;;;5.79;70.55;103346.84;5021172;28;45407;-65
2022/01/23 11:10:22;;;;;;;;;29.00;23.00;;;;;5.72;71.15;103339.91;5017905;28;45326;-65
2022/01/23 11:18:12;;;;;;;;;33.33;27.33;;;;;5.72;71.44;103329.09;5020746;28;45615;-65
2022/01/23 11:20:43;;;;;;;;;28.33;23.33;;;;;5.72;70.95;103329.09;5017683;28;46520;-65
2022/01/23 11:23:17;;;;;;;;;32.33;21.67;;;;;5.72;71.24;103334.50;5020816;28;45484;-65
2022/01/23 11:26:02;;;;;;;;;25.00;21.33;;;;;5.66;71.29;103324.81;5019682;28;45448;-65
2022/01/23 11:28:38;;;;;;;;;25.33;19.67;;;;;5.57;71.23;103318.84;5020035;28;45603;-65
2022/01/23 11:31:10;;;;;;;;;28.67;24.00;;;;;5.51;71.49;103308.28;5022523;28;45381;-65
2022/01/23 11:33:36;;;;;;;;;23.67;20.33;;;;;5.55;71.15;103315.34;5018490;28;48310;-65
2022/01/23 11:36:03;;;;;;;;;24.67;21.33;;;;;5.58;70.88;103326.00;5014401;28;45535;-65
2022/01/23 11:38:28;;;;;;;;;20.67;18.67;;;;;5.63;71.14;103326.72;5020362;28;45497;-65
2022/01/23 11:54:39;;;;;;;;;19.33;14.00;;;;;5.65;69.80;103305.97;5015797;28;45303;-66
2022/01/23 11:57:24;;;;;;;;;17.00;14.67;;;;;5.61;69.88;103296.25;5022411;28;45454;-66
2022/01/23 11:59:50;;;;;;;;;53.50;42.00;;;;;5.67;70.20;103305.00;5014484;28;45486;-66
2022/01/23 12:05:16;;;;;;;;;69.75;54.00;;;;;5.78;69.85;103288.41;5024366;28;46862;-66
2022/01/23 12:07:43;;;;;;;;;40.25;32.00;;;;;5.69;69.51;103286.97;5022210;28;45503;-66
2022/01/23 12:10:29;;;;;;;;;278.00;225.75;;;;;5.76;69.62;103290.31;5014753;28;45479;-66
2022/01/23 12:16:20;;;;;;;;;81.25;62.50;;;;;5.80;69.53;103279.34;5010911;28;45718;-66
2022/01/23 12:18:50;;;;;;;;;66.50;49.50;;;;;5.73;69.90;103276.94;5021585;28;45351;-66
2022/01/23 12:21:29;;;;;;;;;38.50;30.25;;;;;5.83;69.47;103264.88;5024056;28;45376;-66
2022/01/23 12:24:03;;;;;;;;;46.00;31.75;;;;;5.84;69.84;103272.03;5038798;28;45713;-66
2022/01/23 12:26:29;;;;;;;;;28.00;24.00;;;;;5.73;69.33;103263.44;5024088;28;47333;-66
2022/01/23 12:28:54;;;;;;;;;36.50;30.00;;;;;5.81;69.07;103258.66;5022804;28;45934;-66
2022/01/23 12:31:24;;;;;;;;;22.33;16.33;;;;;5.75;68.93;103270.56;5017198;28;45358;-66
2022/01/23 12:34:01;;;;;;;;;54.75;44.00;;;;;5.74;69.52;103257.13;5022119;28;45442;-66
2022/01/23 12:36:38;;;;;;;;;45.25;40.00;;;;;5.83;69.43;103256.78;5017951;28;45398;-66
2022/01/23 12:39:06;;;;;;;;;28.67;22.33;;;;;5.76;69.44;103249.84;5012007;28;45549;-66
2022/01/23 12:41:51;;;;;;;;;40.00;33.75;;;;;5.84;69.67;103234.25;5020377;28;45405;-67
2022/01/23 12:44:23;;;;;;;;;48.25;37.00;;;;;5.97;69.87;103245.50;5020078;28;45492;-67
2022/01/23 12:46:51;;;;;;;;;63.50;48.25;;;;;6.05;69.84;103244.28;5024676;28;45465;-66
2022/01/23 12:49:24;;;;;;;;;37.00;29.67;;;;;6.01;69.54;103226.44;5018170;28;45394;-66
2022/01/23 12:52:11;;;;;;;;;49.75;41.25;;;;;6.08;69.41;103225.25;5019992;28;45402;-66
2022/01/23 12:54:59;;;;;;;;;43.50;39.75;;;;;6.08;68.97;103218.97;5014861;28;45273;-65
2022/01/23 12:57:40;;;;;;;;;34.50;34.00;;;;;6.09;69.40;103223.44;5016951;28;45448;-65
2022/01/23 13:00:17;;;;;;;;;40.50;36.75;;;;;6.05;69.30;103216.41;5018515;28;45492;-65
2022/01/23 13:02:49;;;;;;;;;40.50;28.50;;;;;6.09;69.32;103212.63;5024803;28;45389;-66
2022/01/23 13:05:16;;;;;;;;;34.50;26.50;;;;;6.10;69.28;103200.91;5019043;28;45403;-68
2022/01/23 13:08:00;;;;;;;;;28.00;23.75;;;;;6.11;68.83;103211.66;5040377;28;47383;-67
2022/01/23 13:10:54;;;;;;;;;25.33;20.00;;;;;6.09;69.04;103205.41;5034973;28;45532;-66
2022/01/23 13:17:08;;;;;;;;;27.67;25.00;;;;;6.13;69.30;103201.69;5019073;28;45380;-66
2022/01/23 13:29:11;;;;;;;;;35.00;29.00;;;;;6.09;68.87;103182.94;5023682;28;45426;-67
2022/01/23 13:30:20;;;;;;;;;26.33;25.67;;;;;6.13;69.31;103190.88;5024853;28;45320;-66
2022/01/23 13:32:48;;;;;;;;;25.00;24.33;;;;;6.17;69.13;103186.22;5023962;28;45432;-66
2022/01/23 13:35:17;;;;;;;;;22.67;20.33;;;;;6.14;69.12;103180.94;5012806;28;45430;-66
2022/01/23 13:37:57;;;;;;;;;26.67;23.33;;;;;6.13;69.14;103180.09;5024929;28;45239;-67
2022/01/23 13:40:34;;;;;;;;;30.00;27.00;;;;;6.11;69.27;103187.34;5015862;28;45470;-66
2022/01/23 13:57:37;;;;;;;;;29.67;24.00;;;;;6.17;69.11;103159.25;5021359;28;46936;-66
2022/01/23 14:02:27;;;;;;;;;29.67;22.67;;;;;6.03;68.76;103145.41;5021906;28;46139;-66
2022/01/23 14:05:08;;;;;;;;;29.33;25.33;;;;;6.01;69.24;103141.88;5019128;28;45558;-67
2022/01/23 14:07:35;;;;;;;;;30.33;25.00;;;;;6.09;69.61;103135.25;5022005;28;45391;-67
2022/01/23 14:10:29;;;;;;;;;29.33;22.33;;;;;6.20;69.47;103142.94;5021113;28;45797;-66
2022/01/23 14:13:05;;;;;;;;;30.00;26.33;;;;;6.27;69.25;103133.63;5006861;28;46974;-66
2022/01/23 14:15:31;;;;;;;;;29.00;24.67;;;;;6.29;68.95;103129.03;5019694;28;45674;-66
2022/01/23 14:18:06;;;;;;;;;45.25;34.25;;;;;6.30;68.81;103129.91;5020844;28;45701;-66
2022/01/23 14:20:41;;;;;;;;;23.00;20.67;;;;;6.33;68.82;103124.41;5020748;28;45272;-66
2022/01/23 14:23:15;;;;;;;;;24.00;21.50;;;;;6.33;68.57;103133.38;5019276;28;48352;-64
2022/01/23 14:25:53;;;;;;;;;33.25;26.00;;;;;6.28;68.66;103124.59;5020983;28;45432;-65
2022/01/23 14:28:22;;;;;;;;;38.25;28.25;;;;;6.35;68.60;103127.94;5020836;28;45493;-65
2022/01/23 14:30:54;;;;;;;;;28.75;25.25;;;;;6.29;68.87;103131.72;5019317;28;45517;-65
2022/01/23 14:33:31;;;;;;;;;37.25;30.00;;;;;6.27;68.38;103127.38;5018690;28;47215;-65
2022/01/23 14:35:57;;;;;;;;;28.75;23.75;;;;;6.19;68.28;103117.75;5020266;28;45871;-66
2022/01/23 14:38:27;;;;;;;;;26.33;24.33;;;;;6.18;68.49;103113.28;5019473;28;45343;-66
2022/01/23 14:41:09;;;;;;;;;26.00;24.00;;;;;6.24;68.63;103117.56;5020757;28;45637;-66